Dauntless Aviation
Airports Asia Macau
XZM

Macau Heliport At Outer Harbour Ferry Terminal

Macau, MACAU

Airport Info
Suggest Updated Information for this Airport

Location

Latitude / Longitude: 22°11'49"N / 113°33'32"E
  22°11.826'N / 113°33.54'E
  22.1971 / 113.5590
Satellite photo at:
Airport distance calculator
From:
Weather Reports

METAR

VMMC
3.1nm SE
VMMC 191900Z 08006KT 060V120 9999 FEW012 28/26 Q1010 NOSIG
VHHH
21.1nm NE
VHHH 191930Z 08007KT 9999 FEW022 27/25 Q1011 NOSIG
ZGSZ
29.4nm N
ZGSZ 191900Z 06003MPS 360V100 CAVOK 26/25 Q1011 NOSIG

TAF

VMMC
3.1nm SE
TAF VMMC 191700Z 1918/2024 14010KT 9999 FEW015 SCT025 TEMPO 1918/2002 07008KT 4000 SHRA FEW010CB SCT020
VHHH
21.1nm NE
TAF VHHH 191700Z 1918/2024 11010KT 9999 FEW020 TX32/2006Z TN27/1922Z TN27/2022Z TEMPO 1921/1924 4000 SHRA FEW010CB SCT025 TEMPO 2003/2009 22010KT 4000 SHRA FEW010CB SCT025
ZGSZ
29.4nm N
TAF ZGSZ 191518Z 1918/2018 12004MPS 6000 SCT030 TX32/2006Z TN27/1922Z TEMPO 1922/2002 SHRA SCT012 FEW020CB TEMPO 2004/2010 18004MPS -TSRA SCT015 FEW020CB
Safelog

 

Dauntless Aviation

© 2007-2020 Dauntless Aviation, all rights reserved
Information provided via PilotNav comes from a variety of official and unofficial data sources. As errors are possible, do not use PilotNav for primary flight planning purposes. Verify any information that you receive via PilotNav with current and canonical charts and other official documents. The material in this database is subject to database copyrights held by Dauntless Aviation and may not be copied without the express permission of Dauntless Aviation - licenses for use of part of all of this data are available for purchase; enquire via the Dauntless Aviation helpdesk. A number of mechanisms and markers exist in the database to protect against and identify infringement / copyright. Automated queries against this website are strictly prohibited, and all activity is logged and analyzed.